Overview Statistics Trail Chart Weather Telemetry Raw packets
 

This is the latest recevied weather packets stored in our database for station/object SV4JYD-14. If no packets are shown the sender has not sent any weather packets the latest 10 day(s).

<< 27 28 29 30 31 32 33 >>
Time Temp. Humidity Pressure Rain* Wind** Luminosity Snow
1777378889 21.67° C 35% 1016 hPa 0 mm - - -
1777377989 21.67° C 31% 1017 hPa 0 mm - - -
1777377089 21.11° C 30% 1016 hPa 0 mm - - -
1777376188 21.11° C 30% 1016 hPa 0 mm - - -
1777375288 20.56° C 31% 1017 hPa 0 mm - - -
1777374388 21.11° C 30% 1017 hPa 0 mm - - -
1777373487 20.56° C 31% 1016 hPa 0 mm - - -
1777372586 21.11° C 33% 1016 hPa 0 mm - - -
1777371686 19.44° C 40% 1017 hPa 0 mm - - -
1777370786 20° C 39% 1017 hPa 0 mm - - -
1777369885 19.44° C 43% 1017 hPa 0 mm - - -
1777368985 18.89° C 46% 1017 hPa 0 mm - - -
1777368085 18.33° C 49% 1018 hPa 0 mm - - -
1777367185 18.33° C 51% 1017 hPa 0 mm - - -
1777366284 18.89° C 49% 1017 hPa 0 mm - - -
1777365384 18.89° C 48% 1017 hPa 0 mm - - -
1777364484 18.33° C 49% 1018 hPa 0 mm - - -
1777363584 17.78° C 50% 1018 hPa 0 mm - - -
1777362683 17.22° C 52% 1017 hPa 0 mm - - -
1777361783 17.22° C 53% 1017 hPa 0 mm - - -
1777360883 17.22° C 54% 1018 hPa 0 mm - - -
1777359983 16.67° C 55% 1017 hPa 0 mm - - -
1777359082 16.11° C 56% 1017 hPa 0 mm - - -
1777358182 16.11° C 57% 1017 hPa 0 mm - - -
1777357282 15.56° C 59% 1018 hPa 0 mm - - -

* Rain latest hour (hover to see other rain measurements)
** Current wind speed in m/s (hover to see current wind gust speed)